<?xml version="1.0" encoding="UTF-8" standalone="no" ?>
<gpx xmlns="http://www.topografix.com/GPX/1/1" xmlns:xsi="http://www.w3.org/2001/XMLSchema-instance" xsi:schemaLocation="http://www.topografix.com/GPX/1/1 http://www.topografix.com/GPX/1/1/gpx.xsd" version="1.1" creator="VisuGPX - https://www.visugpx.com">
  <metadata>
    <name>Circuit 13 Km Foret d\'Evreux</name>
    <desc><![CDATA[Circuit principalement Route]]></desc>
  </metadata>
  <trk>
    <name><![CDATA[ACTIVE LOG: 14 JAN 2012 09:10]]></name>
    <trkseg>
      <trkpt lat="49.00244" lon="1.0893">
        <ele>112.61</ele>
        <time>2012-01-14T08:10:55Z</time>
      </trkpt>
      <trkpt lat="49.00241" lon="1.08948">
        <ele>112.61</ele>
        <time>2012-01-14T08:11:04Z</time>
      </trkpt>
      <trkpt lat="49.00212" lon="1.08955">
        <ele>112.13</ele>
        <time>2012-01-14T08:11:12Z</time>
      </trkpt>
      <trkpt lat="49.00212" lon="1.09">
        <ele>112.61</ele>
        <time>2012-01-14T08:11:23Z</time>
      </trkpt>
      <trkpt lat="49.00232" lon="1.09043">
        <ele>111.65</ele>
        <time>2012-01-14T08:11:34Z</time>
      </trkpt>
      <trkpt lat="49.00251" lon="1.09087">
        <ele>111.17</ele>
        <time>2012-01-14T08:11:45Z</time>
      </trkpt>
      <trkpt lat="49.00251" lon="1.0911">
        <ele>111.65</ele>
        <time>2012-01-14T08:11:50Z</time>
      </trkpt>
      <trkpt lat="49.00218" lon="1.09136">
        <ele>111.65</ele>
        <time>2012-01-14T08:12:02Z</time>
      </trkpt>
      <trkpt lat="49.00179" lon="1.09152">
        <ele>113.09</ele>
        <time>2012-01-14T08:12:15Z</time>
      </trkpt>
      <trkpt lat="49.00149" lon="1.09187">
        <ele>113.57</ele>
        <time>2012-01-14T08:12:29Z</time>
      </trkpt>
      <trkpt lat="49.00136" lon="1.09233">
        <ele>113.09</ele>
        <time>2012-01-14T08:12:41Z</time>
      </trkpt>
      <trkpt lat="49.00146" lon="1.09279">
        <ele>111.65</ele>
        <time>2012-01-14T08:12:52Z</time>
      </trkpt>
      <trkpt lat="49.00158" lon="1.09317">
        <ele>113.09</ele>
        <time>2012-01-14T08:13:03Z</time>
      </trkpt>
      <trkpt lat="49.00161" lon="1.09361">
        <ele>110.21</ele>
        <time>2012-01-14T08:13:16Z</time>
      </trkpt>
      <trkpt lat="49.00162" lon="1.09378">
        <ele>106.84</ele>
        <time>2012-01-14T08:13:21Z</time>
      </trkpt>
      <trkpt lat="49.00162" lon="1.09381">
        <ele>106.84</ele>
        <time>2012-01-14T08:13:22Z</time>
      </trkpt>
      <trkpt lat="49.00163" lon="1.09396">
        <ele>104.44</ele>
        <time>2012-01-14T08:13:26Z</time>
      </trkpt>
      <trkpt lat="49.00164" lon="1.09422">
        <ele>102.04</ele>
        <time>2012-01-14T08:13:33Z</time>
      </trkpt>
      <trkpt lat="49.00164" lon="1.09436">
        <ele>99.15</ele>
        <time>2012-01-14T08:13:37Z</time>
      </trkpt>
      <trkpt lat="49.00166" lon="1.09456">
        <ele>97.23</ele>
        <time>2012-01-14T08:13:43Z</time>
      </trkpt>
      <trkpt lat="49.00166" lon="1.09472">
        <ele>95.31</ele>
        <time>2012-01-14T08:13:47Z</time>
      </trkpt>
      <trkpt lat="49.00166" lon="1.09488">
        <ele>92.42</ele>
        <time>2012-01-14T08:13:51Z</time>
      </trkpt>
      <trkpt lat="49.0017" lon="1.09507">
        <ele>91.46</ele>
        <time>2012-01-14T08:13:56Z</time>
      </trkpt>
      <trkpt lat="49.0017" lon="1.09525">
        <ele>87.14</ele>
        <time>2012-01-14T08:14:01Z</time>
      </trkpt>
      <trkpt lat="49.0017" lon="1.09529">
        <ele>87.14</ele>
        <time>2012-01-14T08:14:02Z</time>
      </trkpt>
      <trkpt lat="49.0017" lon="1.09562">
        <ele>83.77</ele>
        <time>2012-01-14T08:14:10Z</time>
      </trkpt>
      <trkpt lat="49.00169" lon="1.09573">
        <ele>82.33</ele>
        <time>2012-01-14T08:14:13Z</time>
      </trkpt>
      <trkpt lat="49.0017" lon="1.09583">
        <ele>79.93</ele>
        <time>2012-01-14T08:14:16Z</time>
      </trkpt>
      <trkpt lat="49.00168" lon="1.09613">
        <ele>76.56</ele>
        <time>2012-01-14T08:14:24Z</time>
      </trkpt>
      <trkpt lat="49.00167" lon="1.09624">
        <ele>74.16</ele>
        <time>2012-01-14T08:14:27Z</time>
      </trkpt>
      <trkpt lat="49.00168" lon="1.09633">
        <ele>70.79</ele>
        <time>2012-01-14T08:14:30Z</time>
      </trkpt>
      <trkpt lat="49.00168" lon="1.09637">
        <ele>70.79</ele>
        <time>2012-01-14T08:14:31Z</time>
      </trkpt>
      <trkpt lat="49.00169" lon="1.09663">
        <ele>68.39</ele>
        <time>2012-01-14T08:14:39Z</time>
      </trkpt>
      <trkpt lat="49.0017" lon="1.0967">
        <ele>66.95</ele>
        <time>2012-01-14T08:14:41Z</time>
      </trkpt>
      <trkpt lat="49.0017" lon="1.09677">
        <ele>63.58</ele>
        <time>2012-01-14T08:14:43Z</time>
      </trkpt>
      <trkpt lat="49.00171" lon="1.09684">
        <ele>62.62</ele>
        <time>2012-01-14T08:14:45Z</time>
      </trkpt>
      <trkpt lat="49.00177" lon="1.09714">
        <ele>62.14</ele>
        <time>2012-01-14T08:14:52Z</time>
      </trkpt>
      <trkpt lat="49.0018" lon="1.09726">
        <ele>59.74</ele>
        <time>2012-01-14T08:14:55Z</time>
      </trkpt>
      <trkpt lat="49.00193" lon="1.09749">
        <ele>60.7</ele>
        <time>2012-01-14T08:15:02Z</time>
      </trkpt>
      <trkpt lat="49.00205" lon="1.09769">
        <ele>58.78</ele>
        <time>2012-01-14T08:15:09Z</time>
      </trkpt>
      <trkpt lat="49.00224" lon="1.09803">
        <ele>58.3</ele>
        <time>2012-01-14T08:15:21Z</time>
      </trkpt>
      <trkpt lat="49.00235" lon="1.09828">
        <ele>60.7</ele>
        <time>2012-01-14T08:15:28Z</time>
      </trkpt>
      <trkpt lat="49.00242" lon="1.09856">
        <ele>58.78</ele>
        <time>2012-01-14T08:15:35Z</time>
      </trkpt>
      <trkpt lat="49.00239" lon="1.09888">
        <ele>58.78</ele>
        <time>2012-01-14T08:15:42Z</time>
      </trkpt>
      <trkpt lat="49.00211" lon="1.09927">
        <ele>58.3</ele>
        <time>2012-01-14T08:15:55Z</time>
      </trkpt>
      <trkpt lat="49.00177" lon="1.09961">
        <ele>58.78</ele>
        <time>2012-01-14T08:16:10Z</time>
      </trkpt>
      <trkpt lat="49.00165" lon="1.09973">
        <ele>56.37</ele>
        <time>2012-01-14T08:16:15Z</time>
      </trkpt>
      <trkpt lat="49.0015" lon="1.09988">
        <ele>58.3</ele>
        <time>2012-01-14T08:16:22Z</time>
      </trkpt>
      <trkpt lat="49.00135" lon="1.10003">
        <ele>55.89</ele>
        <time>2012-01-14T08:16:29Z</time>
      </trkpt>
      <trkpt lat="49.00126" lon="1.1001">
        <ele>57.34</ele>
        <time>2012-01-14T08:16:33Z</time>
      </trkpt>
      <trkpt lat="49.00112" lon="1.10024">
        <ele>56.86</ele>
        <time>2012-01-14T08:16:40Z</time>
      </trkpt>
      <trkpt lat="49.00097" lon="1.10037">
        <ele>57.82</ele>
        <time>2012-01-14T08:16:47Z</time>
      </trkpt>
      <trkpt lat="49.00065" lon="1.10059">
        <ele>57.34</ele>
        <time>2012-01-14T08:17:01Z</time>
      </trkpt>
      <trkpt lat="49.00047" lon="1.10067">
        <ele>55.89</ele>
        <time>2012-01-14T08:17:08Z</time>
      </trkpt>
      <trkpt lat="49.00006" lon="1.10082">
        <ele>58.3</ele>
        <time>2012-01-14T08:17:25Z</time>
      </trkpt>
      <trkpt lat="49.00001" lon="1.10084">
        <ele>59.26</ele>
        <time>2012-01-14T08:17:27Z</time>
      </trkpt>
      <trkpt lat="48.99986" lon="1.10092">
        <ele>57.82</ele>
        <time>2012-01-14T08:17:34Z</time>
      </trkpt>
      <trkpt lat="48.99959" lon="1.1011">
        <ele>58.3</ele>
        <time>2012-01-14T08:17:45Z</time>
      </trkpt>
      <trkpt lat="48.99953" lon="1.10113">
        <ele>57.82</ele>
        <time>2012-01-14T08:17:47Z</time>
      </trkpt>
      <trkpt lat="48.99942" lon="1.10109">
        <ele>57.34</ele>
        <time>2012-01-14T08:17:51Z</time>
      </trkpt>
      <trkpt lat="48.99939" lon="1.10096">
        <ele>58.78</ele>
        <time>2012-01-14T08:17:54Z</time>
      </trkpt>
      <trkpt lat="48.99932" lon="1.10065">
        <ele>56.37</ele>
        <time>2012-01-14T08:18:01Z</time>
      </trkpt>
      <trkpt lat="48.99916" lon="1.10018">
        <ele>56.37</ele>
        <time>2012-01-14T08:18:14Z</time>
      </trkpt>
      <trkpt lat="48.99901" lon="1.0997">
        <ele>56.86</ele>
        <time>2012-01-14T08:18:28Z</time>
      </trkpt>
      <trkpt lat="48.99886" lon="1.0993">
        <ele>57.82</ele>
        <time>2012-01-14T08:18:40Z</time>
      </trkpt>
      <trkpt lat="48.9987" lon="1.09885">
        <ele>57.34</ele>
        <time>2012-01-14T08:18:53Z</time>
      </trkpt>
      <trkpt lat="48.99851" lon="1.09837">
        <ele>57.82</ele>
        <time>2012-01-14T08:19:08Z</time>
      </trkpt>
      <trkpt lat="48.99836" lon="1.0978">
        <ele>58.78</ele>
        <time>2012-01-14T08:19:24Z</time>
      </trkpt>
      <trkpt lat="48.99825" lon="1.09725">
        <ele>59.26</ele>
        <time>2012-01-14T08:19:40Z</time>
      </trkpt>
      <trkpt lat="48.9982" lon="1.0967">
        <ele>59.74</ele>
        <time>2012-01-14T08:19:55Z</time>
      </trkpt>
      <trkpt lat="48.99812" lon="1.09607">
        <ele>59.26</ele>
        <time>2012-01-14T08:20:13Z</time>
      </trkpt>
      <trkpt lat="48.99806" lon="1.09558">
        <ele>59.74</ele>
        <time>2012-01-14T08:20:27Z</time>
      </trkpt>
      <trkpt lat="48.9979" lon="1.09504">
        <ele>59.74</ele>
        <time>2012-01-14T08:20:44Z</time>
      </trkpt>
      <trkpt lat="48.99774" lon="1.09461">
        <ele>59.74</ele>
        <time>2012-01-14T08:20:58Z</time>
      </trkpt>
      <trkpt lat="48.99759" lon="1.09413">
        <ele>59.26</ele>
        <time>2012-01-14T08:21:13Z</time>
      </trkpt>
      <trkpt lat="48.99746" lon="1.09365">
        <ele>59.74</ele>
        <time>2012-01-14T08:21:28Z</time>
      </trkpt>
      <trkpt lat="48.99728" lon="1.09306">
        <ele>60.22</ele>
        <time>2012-01-14T08:21:45Z</time>
      </trkpt>
      <trkpt lat="48.99719" lon="1.09257">
        <ele>60.7</ele>
        <time>2012-01-14T08:21:58Z</time>
      </trkpt>
      <trkpt lat="48.99706" lon="1.09201">
        <ele>60.7</ele>
        <time>2012-01-14T08:22:13Z</time>
      </trkpt>
      <trkpt lat="48.99693" lon="1.09155">
        <ele>60.7</ele>
        <time>2012-01-14T08:22:26Z</time>
      </trkpt>
      <trkpt lat="48.9968" lon="1.09113">
        <ele>61.18</ele>
        <time>2012-01-14T08:22:38Z</time>
      </trkpt>
      <trkpt lat="48.99666" lon="1.09068">
        <ele>61.18</ele>
        <time>2012-01-14T08:22:51Z</time>
      </trkpt>
      <trkpt lat="48.99659" lon="1.09022">
        <ele>61.18</ele>
        <time>2012-01-14T08:23:04Z</time>
      </trkpt>
      <trkpt lat="48.99645" lon="1.08971">
        <ele>60.7</ele>
        <time>2012-01-14T08:23:19Z</time>
      </trkpt>
      <trkpt lat="48.99626" lon="1.08916">
        <ele>60.7</ele>
        <time>2012-01-14T08:23:35Z</time>
      </trkpt>
      <trkpt lat="48.99607" lon="1.08858">
        <ele>61.18</ele>
        <time>2012-01-14T08:23:52Z</time>
      </trkpt>
      <trkpt lat="48.99591" lon="1.08807">
        <ele>61.18</ele>
        <time>2012-01-14T08:24:07Z</time>
      </trkpt>
      <trkpt lat="48.99579" lon="1.08765">
        <ele>61.18</ele>
        <time>2012-01-14T08:24:20Z</time>
      </trkpt>
      <trkpt lat="48.99565" lon="1.08715">
        <ele>61.66</ele>
        <time>2012-01-14T08:24:34Z</time>
      </trkpt>
      <trkpt lat="48.99552" lon="1.08665">
        <ele>61.66</ele>
        <time>2012-01-14T08:24:48Z</time>
      </trkpt>
      <trkpt lat="48.99538" lon="1.08605">
        <ele>61.66</ele>
        <time>2012-01-14T08:25:04Z</time>
      </trkpt>
      <trkpt lat="48.99528" lon="1.08541">
        <ele>61.66</ele>
        <time>2012-01-14T08:25:20Z</time>
      </trkpt>
      <trkpt lat="48.99526" lon="1.08529">
        <ele>61.66</ele>
        <time>2012-01-14T08:25:23Z</time>
      </trkpt>
      <trkpt lat="48.99521" lon="1.08478">
        <ele>62.14</ele>
        <time>2012-01-14T08:25:36Z</time>
      </trkpt>
      <trkpt lat="48.99514" lon="1.08431">
        <ele>62.14</ele>
        <time>2012-01-14T08:25:48Z</time>
      </trkpt>
      <trkpt lat="48.99506" lon="1.08377">
        <ele>62.14</ele>
        <time>2012-01-14T08:26:02Z</time>
      </trkpt>
      <trkpt lat="48.99495" lon="1.08327">
        <ele>62.14</ele>
        <time>2012-01-14T08:26:16Z</time>
      </trkpt>
      <trkpt lat="48.99483" lon="1.08275">
        <ele>62.14</ele>
        <time>2012-01-14T08:26:31Z</time>
      </trkpt>
      <trkpt lat="48.99469" lon="1.08218">
        <ele>62.14</ele>
        <time>2012-01-14T08:26:47Z</time>
      </trkpt>
      <trkpt lat="48.99463" lon="1.08175">
        <ele>62.14</ele>
        <time>2012-01-14T08:26:59Z</time>
      </trkpt>
      <trkpt lat="48.99451" lon="1.08113">
        <ele>62.62</ele>
        <time>2012-01-14T08:27:16Z</time>
      </trkpt>
      <trkpt lat="48.99445" lon="1.08057">
        <ele>63.1</ele>
        <time>2012-01-14T08:27:32Z</time>
      </trkpt>
      <trkpt lat="48.99445" lon="1.08">
        <ele>63.1</ele>
        <time>2012-01-14T08:27:47Z</time>
      </trkpt>
      <trkpt lat="48.99444" lon="1.07943">
        <ele>63.1</ele>
        <time>2012-01-14T08:28:03Z</time>
      </trkpt>
      <trkpt lat="48.99444" lon="1.07883">
        <ele>63.58</ele>
        <time>2012-01-14T08:28:20Z</time>
      </trkpt>
      <trkpt lat="48.99446" lon="1.07826">
        <ele>63.58</ele>
        <time>2012-01-14T08:28:36Z</time>
      </trkpt>
      <trkpt lat="48.99446" lon="1.07773">
        <ele>63.58</ele>
        <time>2012-01-14T08:28:51Z</time>
      </trkpt>
      <trkpt lat="48.99448" lon="1.07714">
        <ele>64.07</ele>
        <time>2012-01-14T08:29:06Z</time>
      </trkpt>
      <trkpt lat="48.99446" lon="1.07655">
        <ele>63.1</ele>
        <time>2012-01-14T08:29:20Z</time>
      </trkpt>
      <trkpt lat="48.99447" lon="1.07597">
        <ele>63.58</ele>
        <time>2012-01-14T08:29:35Z</time>
      </trkpt>
      <trkpt lat="48.9945" lon="1.07544">
        <ele>63.1</ele>
        <time>2012-01-14T08:29:49Z</time>
      </trkpt>
      <trkpt lat="48.9945" lon="1.07488">
        <ele>63.58</ele>
        <time>2012-01-14T08:30:04Z</time>
      </trkpt>
      <trkpt lat="48.99448" lon="1.07433">
        <ele>63.58</ele>
        <time>2012-01-14T08:30:19Z</time>
      </trkpt>
      <trkpt lat="48.99448" lon="1.07373">
        <ele>63.58</ele>
        <time>2012-01-14T08:30:35Z</time>
      </trkpt>
      <trkpt lat="48.99449" lon="1.07316">
        <ele>63.58</ele>
        <time>2012-01-14T08:30:51Z</time>
      </trkpt>
      <trkpt lat="48.99449" lon="1.07249">
        <ele>64.07</ele>
        <time>2012-01-14T08:31:09Z</time>
      </trkpt>
      <trkpt lat="48.9945" lon="1.07201">
        <ele>64.07</ele>
        <time>2012-01-14T08:31:22Z</time>
      </trkpt>
      <trkpt lat="48.9945" lon="1.07145">
        <ele>64.07</ele>
        <time>2012-01-14T08:31:38Z</time>
      </trkpt>
      <trkpt lat="48.99447" lon="1.07089">
        <ele>64.07</ele>
        <time>2012-01-14T08:31:53Z</time>
      </trkpt>
      <trkpt lat="48.99447" lon="1.0704">
        <ele>64.55</ele>
        <time>2012-01-14T08:32:07Z</time>
      </trkpt>
      <trkpt lat="48.9945" lon="1.06984">
        <ele>65.03</ele>
        <time>2012-01-14T08:32:23Z</time>
      </trkpt>
      <trkpt lat="48.99448" lon="1.06927">
        <ele>65.03</ele>
        <time>2012-01-14T08:32:39Z</time>
      </trkpt>
      <trkpt lat="48.99446" lon="1.06879">
        <ele>65.03</ele>
        <time>2012-01-14T08:32:53Z</time>
      </trkpt>
      <trkpt lat="48.99448" lon="1.06828">
        <ele>65.99</ele>
        <time>2012-01-14T08:33:08Z</time>
      </trkpt>
      <trkpt lat="48.99448" lon="1.06776">
        <ele>65.51</ele>
        <time>2012-01-14T08:33:22Z</time>
      </trkpt>
      <trkpt lat="48.99447" lon="1.06725">
        <ele>65.51</ele>
        <time>2012-01-14T08:33:36Z</time>
      </trkpt>
      <trkpt lat="48.99448" lon="1.0667">
        <ele>65.99</ele>
        <time>2012-01-14T08:33:51Z</time>
      </trkpt>
      <trkpt lat="48.99466" lon="1.06641">
        <ele>65.99</ele>
        <time>2012-01-14T08:34:03Z</time>
      </trkpt>
      <trkpt lat="48.99485" lon="1.06606">
        <ele>65.51</ele>
        <time>2012-01-14T08:34:15Z</time>
      </trkpt>
      <trkpt lat="48.99487" lon="1.06603">
        <ele>65.51</ele>
        <time>2012-01-14T08:34:16Z</time>
      </trkpt>
      <trkpt lat="48.9949" lon="1.06581">
        <ele>65.99</ele>
        <time>2012-01-14T08:34:22Z</time>
      </trkpt>
      <trkpt lat="48.99487" lon="1.06539">
        <ele>65.99</ele>
        <time>2012-01-14T08:34:36Z</time>
      </trkpt>
      <trkpt lat="48.99479" lon="1.0649">
        <ele>65.99</ele>
        <time>2012-01-14T08:34:49Z</time>
      </trkpt>
      <trkpt lat="48.99475" lon="1.06471">
        <ele>65.99</ele>
        <time>2012-01-14T08:34:54Z</time>
      </trkpt>
      <trkpt lat="48.99473" lon="1.06454">
        <ele>65.99</ele>
        <time>2012-01-14T08:34:59Z</time>
      </trkpt>
      <trkpt lat="48.99467" lon="1.06427">
        <ele>65.99</ele>
        <time>2012-01-14T08:35:07Z</time>
      </trkpt>
      <trkpt lat="48.99468" lon="1.06411">
        <ele>65.99</ele>
        <time>2012-01-14T08:35:11Z</time>
      </trkpt>
      <trkpt lat="48.99497" lon="1.06386">
        <ele>65.99</ele>
        <time>2012-01-14T08:35:24Z</time>
      </trkpt>
      <trkpt lat="48.99523" lon="1.06361">
        <ele>66.47</ele>
        <time>2012-01-14T08:35:37Z</time>
      </trkpt>
      <trkpt lat="48.9953" lon="1.06328">
        <ele>66.47</ele>
        <time>2012-01-14T08:35:47Z</time>
      </trkpt>
      <trkpt lat="48.99549" lon="1.06292">
        <ele>65.99</ele>
        <time>2012-01-14T08:36:00Z</time>
      </trkpt>
      <trkpt lat="48.99574" lon="1.06268">
        <ele>66.47</ele>
        <time>2012-01-14T08:36:12Z</time>
      </trkpt>
      <trkpt lat="48.99612" lon="1.06262">
        <ele>66.47</ele>
        <time>2012-01-14T08:36:27Z</time>
      </trkpt>
      <trkpt lat="48.99648" lon="1.06262">
        <ele>66.47</ele>
        <time>2012-01-14T08:36:41Z</time>
      </trkpt>
      <trkpt lat="48.99674" lon="1.06247">
        <ele>67.43</ele>
        <time>2012-01-14T08:36:54Z</time>
      </trkpt>
      <trkpt lat="48.99687" lon="1.06198">
        <ele>67.43</ele>
        <time>2012-01-14T08:37:08Z</time>
      </trkpt>
      <trkpt lat="48.99692" lon="1.06148">
        <ele>66.95</ele>
        <time>2012-01-14T08:37:21Z</time>
      </trkpt>
      <trkpt lat="48.99691" lon="1.06108">
        <ele>66.95</ele>
        <time>2012-01-14T08:37:33Z</time>
      </trkpt>
      <trkpt lat="48.99668" lon="1.06064">
        <ele>67.43</ele>
        <time>2012-01-14T08:37:47Z</time>
      </trkpt>
      <trkpt lat="48.9964" lon="1.06036">
        <ele>67.43</ele>
        <time>2012-01-14T08:38:00Z</time>
      </trkpt>
      <trkpt lat="48.99605" lon="1.06014">
        <ele>67.91</ele>
        <time>2012-01-14T08:38:14Z</time>
      </trkpt>
      <trkpt lat="48.99586" lon="1.05969">
        <ele>67.91</ele>
        <time>2012-01-14T08:38:27Z</time>
      </trkpt>
      <trkpt lat="48.99569" lon="1.05931">
        <ele>67.91</ele>
        <time>2012-01-14T08:38:39Z</time>
      </trkpt>
      <trkpt lat="48.99546" lon="1.05885">
        <ele>67.91</ele>
        <time>2012-01-14T08:38:54Z</time>
      </trkpt>
      <trkpt lat="48.9952" lon="1.05843">
        <ele>67.91</ele>
        <time>2012-01-14T08:39:09Z</time>
      </trkpt>
      <trkpt lat="48.9949" lon="1.05823">
        <ele>67.91</ele>
        <time>2012-01-14T08:39:22Z</time>
      </trkpt>
      <trkpt lat="48.99468" lon="1.05786">
        <ele>67.91</ele>
        <time>2012-01-14T08:39:35Z</time>
      </trkpt>
      <trkpt lat="48.99463" lon="1.05727">
        <ele>67.91</ele>
        <time>2012-01-14T08:39:49Z</time>
      </trkpt>
      <trkpt lat="48.99449" lon="1.05678">
        <ele>68.87</ele>
        <time>2012-01-14T08:40:02Z</time>
      </trkpt>
      <trkpt lat="48.99444" lon="1.05629">
        <ele>69.35</ele>
        <time>2012-01-14T08:40:15Z</time>
      </trkpt>
      <trkpt lat="48.9945" lon="1.05589">
        <ele>69.83</ele>
        <time>2012-01-14T08:40:25Z</time>
      </trkpt>
      <trkpt lat="48.99469" lon="1.05543">
        <ele>69.83</ele>
        <time>2012-01-14T08:40:38Z</time>
      </trkpt>
      <trkpt lat="48.99497" lon="1.05514">
        <ele>70.31</ele>
        <time>2012-01-14T08:40:50Z</time>
      </trkpt>
      <trkpt lat="48.99526" lon="1.05502">
        <ele>70.31</ele>
        <time>2012-01-14T08:41:01Z</time>
      </trkpt>
      <trkpt lat="48.99553" lon="1.05536">
        <ele>70.31</ele>
        <time>2012-01-14T08:41:13Z</time>
      </trkpt>
      <trkpt lat="48.99543" lon="1.05583">
        <ele>71.27</ele>
        <time>2012-01-14T08:41:25Z</time>
      </trkpt>
      <trkpt lat="48.99504" lon="1.05612">
        <ele>73.68</ele>
        <time>2012-01-14T08:41:42Z</time>
      </trkpt>
      <trkpt lat="48.99481" lon="1.05622">
        <ele>75.6</ele>
        <time>2012-01-14T08:41:53Z</time>
      </trkpt>
      <trkpt lat="48.9945" lon="1.05629">
        <ele>77.04</ele>
        <time>2012-01-14T08:42:06Z</time>
      </trkpt>
      <trkpt lat="48.99411" lon="1.05635">
        <ele>77.04</ele>
        <time>2012-01-14T08:42:22Z</time>
      </trkpt>
      <trkpt lat="48.99371" lon="1.05637">
        <ele>75.12</ele>
        <time>2012-01-14T08:42:36Z</time>
      </trkpt>
      <trkpt lat="48.99331" lon="1.05641">
        <ele>73.68</ele>
        <time>2012-01-14T08:42:50Z</time>
      </trkpt>
      <trkpt lat="48.99298" lon="1.05636">
        <ele>75.6</ele>
        <time>2012-01-14T08:43:05Z</time>
      </trkpt>
      <trkpt lat="48.99273" lon="1.05624">
        <ele>78</ele>
        <time>2012-01-14T08:43:18Z</time>
      </trkpt>
      <trkpt lat="48.99247" lon="1.05614">
        <ele>80.89</ele>
        <time>2012-01-14T08:43:32Z</time>
      </trkpt>
      <trkpt lat="48.99222" lon="1.05608">
        <ele>83.29</ele>
        <time>2012-01-14T08:43:46Z</time>
      </trkpt>
      <trkpt lat="48.99196" lon="1.05607">
        <ele>85.69</ele>
        <time>2012-01-14T08:44:00Z</time>
      </trkpt>
      <trkpt lat="48.99168" lon="1.05613">
        <ele>87.62</ele>
        <time>2012-01-14T08:44:16Z</time>
      </trkpt>
      <trkpt lat="48.99152" lon="1.05632">
        <ele>90.5</ele>
        <time>2012-01-14T08:44:28Z</time>
      </trkpt>
      <trkpt lat="48.99135" lon="1.05661">
        <ele>93.39</ele>
        <time>2012-01-14T08:44:43Z</time>
      </trkpt>
      <trkpt lat="48.9911" lon="1.05651">
        <ele>96.27</ele>
        <time>2012-01-14T08:44:57Z</time>
      </trkpt>
      <trkpt lat="48.99099" lon="1.05626">
        <ele>99.15</ele>
        <time>2012-01-14T08:45:10Z</time>
      </trkpt>
      <trkpt lat="48.99079" lon="1.05595">
        <ele>102.04</ele>
        <time>2012-01-14T08:45:26Z</time>
      </trkpt>
      <trkpt lat="48.99059" lon="1.05579">
        <ele>103.96</ele>
        <time>2012-01-14T08:45:40Z</time>
      </trkpt>
      <trkpt lat="48.9904" lon="1.05575">
        <ele>105.88</ele>
        <time>2012-01-14T08:45:52Z</time>
      </trkpt>
      <trkpt lat="48.99017" lon="1.05576">
        <ele>108.29</ele>
        <time>2012-01-14T08:46:07Z</time>
      </trkpt>
      <trkpt lat="48.99004" lon="1.05582">
        <ele>109.25</ele>
        <time>2012-01-14T08:46:16Z</time>
      </trkpt>
      <trkpt lat="48.98978" lon="1.05586">
        <ele>111.65</ele>
        <time>2012-01-14T08:46:30Z</time>
      </trkpt>
      <trkpt lat="48.9896" lon="1.05592">
        <ele>114.05</ele>
        <time>2012-01-14T08:46:41Z</time>
      </trkpt>
      <trkpt lat="48.98945" lon="1.05601">
        <ele>116.46</ele>
        <time>2012-01-14T08:46:54Z</time>
      </trkpt>
      <trkpt lat="48.98938" lon="1.05607">
        <ele>117.42</ele>
        <time>2012-01-14T08:46:59Z</time>
      </trkpt>
      <trkpt lat="48.98914" lon="1.05625">
        <ele>120.3</ele>
        <time>2012-01-14T08:47:14Z</time>
      </trkpt>
      <trkpt lat="48.9889" lon="1.05642">
        <ele>122.22</ele>
        <time>2012-01-14T08:47:28Z</time>
      </trkpt>
      <trkpt lat="48.98873" lon="1.05668">
        <ele>124.15</ele>
        <time>2012-01-14T08:47:41Z</time>
      </trkpt>
      <trkpt lat="48.98857" lon="1.05697">
        <ele>125.59</ele>
        <time>2012-01-14T08:47:53Z</time>
      </trkpt>
      <trkpt lat="48.98845" lon="1.05727">
        <ele>126.55</ele>
        <time>2012-01-14T08:48:05Z</time>
      </trkpt>
      <trkpt lat="48.98832" lon="1.0576">
        <ele>127.51</ele>
        <time>2012-01-14T08:48:20Z</time>
      </trkpt>
      <trkpt lat="48.98817" lon="1.05789">
        <ele>128.95</ele>
        <time>2012-01-14T08:48:32Z</time>
      </trkpt>
      <trkpt lat="48.98814" lon="1.05795">
        <ele>128.95</ele>
        <time>2012-01-14T08:48:34Z</time>
      </trkpt>
      <trkpt lat="48.98798" lon="1.05828">
        <ele>129.92</ele>
        <time>2012-01-14T08:48:47Z</time>
      </trkpt>
      <trkpt lat="48.98782" lon="1.05866">
        <ele>131.36</ele>
        <time>2012-01-14T08:49:02Z</time>
      </trkpt>
      <trkpt lat="48.98765" lon="1.05902">
        <ele>131.84</ele>
        <time>2012-01-14T08:49:16Z</time>
      </trkpt>
      <trkpt lat="48.98751" lon="1.05928">
        <ele>132.8</ele>
        <time>2012-01-14T08:49:27Z</time>
      </trkpt>
      <trkpt lat="48.9873" lon="1.05971">
        <ele>133.76</ele>
        <time>2012-01-14T08:49:41Z</time>
      </trkpt>
      <trkpt lat="48.9871" lon="1.06013">
        <ele>133.76</ele>
        <time>2012-01-14T08:49:55Z</time>
      </trkpt>
      <trkpt lat="48.98691" lon="1.06048">
        <ele>134.24</ele>
        <time>2012-01-14T08:50:07Z</time>
      </trkpt>
      <trkpt lat="48.98673" lon="1.0609">
        <ele>134.72</ele>
        <time>2012-01-14T08:50:20Z</time>
      </trkpt>
      <trkpt lat="48.98653" lon="1.06135">
        <ele>135.2</ele>
        <time>2012-01-14T08:50:34Z</time>
      </trkpt>
      <trkpt lat="48.98635" lon="1.06175">
        <ele>135.68</ele>
        <time>2012-01-14T08:50:46Z</time>
      </trkpt>
      <trkpt lat="48.9862" lon="1.0621">
        <ele>135.68</ele>
        <time>2012-01-14T08:50:57Z</time>
      </trkpt>
      <trkpt lat="48.98612" lon="1.06227">
        <ele>135.68</ele>
        <time>2012-01-14T08:51:03Z</time>
      </trkpt>
      <trkpt lat="48.98598" lon="1.06258">
        <ele>135.2</ele>
        <time>2012-01-14T08:51:12Z</time>
      </trkpt>
      <trkpt lat="48.98578" lon="1.06298">
        <ele>135.68</ele>
        <time>2012-01-14T08:51:25Z</time>
      </trkpt>
      <trkpt lat="48.98558" lon="1.06336">
        <ele>135.2</ele>
        <time>2012-01-14T08:51:37Z</time>
      </trkpt>
      <trkpt lat="48.98539" lon="1.06382">
        <ele>134.72</ele>
        <time>2012-01-14T08:51:50Z</time>
      </trkpt>
      <trkpt lat="48.98522" lon="1.0642">
        <ele>134.72</ele>
        <time>2012-01-14T08:52:01Z</time>
      </trkpt>
      <trkpt lat="48.98506" lon="1.06456">
        <ele>134.72</ele>
        <time>2012-01-14T08:52:12Z</time>
      </trkpt>
      <trkpt lat="48.98489" lon="1.06495">
        <ele>135.2</ele>
        <time>2012-01-14T08:52:24Z</time>
      </trkpt>
      <trkpt lat="48.98468" lon="1.06541">
        <ele>135.68</ele>
        <time>2012-01-14T08:52:37Z</time>
      </trkpt>
      <trkpt lat="48.98449" lon="1.0658">
        <ele>137.13</ele>
        <time>2012-01-14T08:52:50Z</time>
      </trkpt>
      <trkpt lat="48.98434" lon="1.06617">
        <ele>138.09</ele>
        <time>2012-01-14T08:53:02Z</time>
      </trkpt>
      <trkpt lat="48.98415" lon="1.06654">
        <ele>138.57</ele>
        <time>2012-01-14T08:53:14Z</time>
      </trkpt>
      <trkpt lat="48.98397" lon="1.06688">
        <ele>139.05</ele>
        <time>2012-01-14T08:53:26Z</time>
      </trkpt>
      <trkpt lat="48.98377" lon="1.06734">
        <ele>140.01</ele>
        <time>2012-01-14T08:53:40Z</time>
      </trkpt>
      <trkpt lat="48.9836" lon="1.06772">
        <ele>140.01</ele>
        <time>2012-01-14T08:53:51Z</time>
      </trkpt>
      <trkpt lat="48.98338" lon="1.06817">
        <ele>140.97</ele>
        <time>2012-01-14T08:54:04Z</time>
      </trkpt>
      <trkpt lat="48.98323" lon="1.06845">
        <ele>140.97</ele>
        <time>2012-01-14T08:54:14Z</time>
      </trkpt>
      <trkpt lat="48.98303" lon="1.0689">
        <ele>141.45</ele>
        <time>2012-01-14T08:54:27Z</time>
      </trkpt>
      <trkpt lat="48.98289" lon="1.06921">
        <ele>141.45</ele>
        <time>2012-01-14T08:54:38Z</time>
      </trkpt>
      <trkpt lat="48.9827" lon="1.0696">
        <ele>141.93</ele>
        <time>2012-01-14T08:54:50Z</time>
      </trkpt>
      <trkpt lat="48.98249" lon="1.07009">
        <ele>141.93</ele>
        <time>2012-01-14T08:55:04Z</time>
      </trkpt>
      <trkpt lat="48.98229" lon="1.0705">
        <ele>141.93</ele>
        <time>2012-01-14T08:55:16Z</time>
      </trkpt>
      <trkpt lat="48.98213" lon="1.07085">
        <ele>141.93</ele>
        <time>2012-01-14T08:55:27Z</time>
      </trkpt>
      <trkpt lat="48.98197" lon="1.07123">
        <ele>142.41</ele>
        <time>2012-01-14T08:55:38Z</time>
      </trkpt>
      <trkpt lat="48.98184" lon="1.07155">
        <ele>142.41</ele>
        <time>2012-01-14T08:55:48Z</time>
      </trkpt>
      <trkpt lat="48.98167" lon="1.07189">
        <ele>142.89</ele>
        <time>2012-01-14T08:55:58Z</time>
      </trkpt>
      <trkpt lat="48.98165" lon="1.07195">
        <ele>142.89</ele>
        <time>2012-01-14T08:56:00Z</time>
      </trkpt>
      <trkpt lat="48.98155" lon="1.07215">
        <ele>142.89</ele>
        <time>2012-01-14T08:56:06Z</time>
      </trkpt>
      <trkpt lat="48.9813" lon="1.07265">
        <ele>142.89</ele>
        <time>2012-01-14T08:56:20Z</time>
      </trkpt>
      <trkpt lat="48.98114" lon="1.07304">
        <ele>143.37</ele>
        <time>2012-01-14T08:56:31Z</time>
      </trkpt>
      <trkpt lat="48.98094" lon="1.07348">
        <ele>143.37</ele>
        <time>2012-01-14T08:56:45Z</time>
      </trkpt>
      <trkpt lat="48.98077" lon="1.07382">
        <ele>143.85</ele>
        <time>2012-01-14T08:56:55Z</time>
      </trkpt>
      <trkpt lat="48.98061" lon="1.07414">
        <ele>144.34</ele>
        <time>2012-01-14T08:57:05Z</time>
      </trkpt>
      <trkpt lat="48.98042" lon="1.07455">
        <ele>144.82</ele>
        <time>2012-01-14T08:57:18Z</time>
      </trkpt>
      <trkpt lat="48.98017" lon="1.0751">
        <ele>145.78</ele>
        <time>2012-01-14T08:57:34Z</time>
      </trkpt>
      <trkpt lat="48.98001" lon="1.07545">
        <ele>146.26</ele>
        <time>2012-01-14T08:57:46Z</time>
      </trkpt>
      <trkpt lat="48.97982" lon="1.07584">
        <ele>147.22</ele>
        <time>2012-01-14T08:57:58Z</time>
      </trkpt>
      <trkpt lat="48.97965" lon="1.07622">
        <ele>147.7</ele>
        <time>2012-01-14T08:58:10Z</time>
      </trkpt>
      <trkpt lat="48.97947" lon="1.07655">
        <ele>148.18</ele>
        <time>2012-01-14T08:58:21Z</time>
      </trkpt>
      <trkpt lat="48.97931" lon="1.07693">
        <ele>148.66</ele>
        <time>2012-01-14T08:58:32Z</time>
      </trkpt>
      <trkpt lat="48.9791" lon="1.07731">
        <ele>149.14</ele>
        <time>2012-01-14T08:58:44Z</time>
      </trkpt>
      <trkpt lat="48.97893" lon="1.0777">
        <ele>149.62</ele>
        <time>2012-01-14T08:58:55Z</time>
      </trkpt>
      <trkpt lat="48.97874" lon="1.07815">
        <ele>150.1</ele>
        <time>2012-01-14T08:59:09Z</time>
      </trkpt>
      <trkpt lat="48.97859" lon="1.07847">
        <ele>150.58</ele>
        <time>2012-01-14T08:59:20Z</time>
      </trkpt>
      <trkpt lat="48.97843" lon="1.07883">
        <ele>150.58</ele>
        <time>2012-01-14T08:59:30Z</time>
      </trkpt>
      <trkpt lat="48.97825" lon="1.07918">
        <ele>150.58</ele>
        <time>2012-01-14T08:59:42Z</time>
      </trkpt>
      <trkpt lat="48.97815" lon="1.07941">
        <ele>151.06</ele>
        <time>2012-01-14T08:59:49Z</time>
      </trkpt>
      <trkpt lat="48.97793" lon="1.07988">
        <ele>151.06</ele>
        <time>2012-01-14T09:00:01Z</time>
      </trkpt>
      <trkpt lat="48.97774" lon="1.08028">
        <ele>151.06</ele>
        <time>2012-01-14T09:00:13Z</time>
      </trkpt>
      <trkpt lat="48.97751" lon="1.08072">
        <ele>151.06</ele>
        <time>2012-01-14T09:00:26Z</time>
      </trkpt>
      <trkpt lat="48.97748" lon="1.08081">
        <ele>151.06</ele>
        <time>2012-01-14T09:00:28Z</time>
      </trkpt>
      <trkpt lat="48.97723" lon="1.08132">
        <ele>151.06</ele>
        <time>2012-01-14T09:00:42Z</time>
      </trkpt>
      <trkpt lat="48.97704" lon="1.08168">
        <ele>150.58</ele>
        <time>2012-01-14T09:00:53Z</time>
      </trkpt>
      <trkpt lat="48.97679" lon="1.08218">
        <ele>150.1</ele>
        <time>2012-01-14T09:01:08Z</time>
      </trkpt>
      <trkpt lat="48.97661" lon="1.0826">
        <ele>150.1</ele>
        <time>2012-01-14T09:01:19Z</time>
      </trkpt>
      <trkpt lat="48.97639" lon="1.0831">
        <ele>149.14</ele>
        <time>2012-01-14T09:01:33Z</time>
      </trkpt>
      <trkpt lat="48.97622" lon="1.08348">
        <ele>148.66</ele>
        <time>2012-01-14T09:01:43Z</time>
      </trkpt>
      <trkpt lat="48.97603" lon="1.0839">
        <ele>148.18</ele>
        <time>2012-01-14T09:01:55Z</time>
      </trkpt>
      <trkpt lat="48.97588" lon="1.08423">
        <ele>147.7</ele>
        <time>2012-01-14T09:02:05Z</time>
      </trkpt>
      <trkpt lat="48.97568" lon="1.08469">
        <ele>146.74</ele>
        <time>2012-01-14T09:02:19Z</time>
      </trkpt>
      <trkpt lat="48.97543" lon="1.0852">
        <ele>145.78</ele>
        <time>2012-01-14T09:02:33Z</time>
      </trkpt>
      <trkpt lat="48.97522" lon="1.0856">
        <ele>144.82</ele>
        <time>2012-01-14T09:02:46Z</time>
      </trkpt>
      <trkpt lat="48.97497" lon="1.08603">
        <ele>143.85</ele>
        <time>2012-01-14T09:03:00Z</time>
      </trkpt>
      <trkpt lat="48.97475" lon="1.08656">
        <ele>143.37</ele>
        <time>2012-01-14T09:03:16Z</time>
      </trkpt>
      <trkpt lat="48.97485" lon="1.08688">
        <ele>143.37</ele>
        <time>2012-01-14T09:03:27Z</time>
      </trkpt>
      <trkpt lat="48.97509" lon="1.08706">
        <ele>143.85</ele>
        <time>2012-01-14T09:03:39Z</time>
      </trkpt>
      <trkpt lat="48.97542" lon="1.0873">
        <ele>143.85</ele>
        <time>2012-01-14T09:03:54Z</time>
      </trkpt>
      <trkpt lat="48.97568" lon="1.08747">
        <ele>144.34</ele>
        <time>2012-01-14T09:04:06Z</time>
      </trkpt>
      <trkpt lat="48.97593" lon="1.08764">
        <ele>144.82</ele>
        <time>2012-01-14T09:04:18Z</time>
      </trkpt>
      <trkpt lat="48.97604" lon="1.08772">
        <ele>145.3</ele>
        <time>2012-01-14T09:04:23Z</time>
      </trkpt>
      <trkpt lat="48.9764" lon="1.088">
        <ele>145.78</ele>
        <time>2012-01-14T09:04:39Z</time>
      </trkpt>
      <trkpt lat="48.97662" lon="1.08822">
        <ele>145.78</ele>
        <time>2012-01-14T09:04:51Z</time>
      </trkpt>
      <trkpt lat="48.97693" lon="1.08846">
        <ele>146.26</ele>
        <time>2012-01-14T09:05:04Z</time>
      </trkpt>
      <trkpt lat="48.97727" lon="1.08869">
        <ele>146.26</ele>
        <time>2012-01-14T09:05:18Z</time>
      </trkpt>
      <trkpt lat="48.97751" lon="1.08884">
        <ele>146.74</ele>
        <time>2012-01-14T09:05:28Z</time>
      </trkpt>
      <trkpt lat="48.97773" lon="1.08902">
        <ele>146.74</ele>
        <time>2012-01-14T09:05:38Z</time>
      </trkpt>
      <trkpt lat="48.97801" lon="1.08925">
        <ele>146.74</ele>
        <time>2012-01-14T09:05:51Z</time>
      </trkpt>
      <trkpt lat="48.97811" lon="1.0893">
        <ele>146.74</ele>
        <time>2012-01-14T09:05:55Z</time>
      </trkpt>
      <trkpt lat="48.97818" lon="1.08936">
        <ele>146.74</ele>
        <time>2012-01-14T09:05:59Z</time>
      </trkpt>
      <trkpt lat="48.97841" lon="1.08957">
        <ele>147.22</ele>
        <time>2012-01-14T09:06:09Z</time>
      </trkpt>
      <trkpt lat="48.97872" lon="1.08979">
        <ele>147.22</ele>
        <time>2012-01-14T09:06:20Z</time>
      </trkpt>
      <trkpt lat="48.97888" lon="1.08989">
        <ele>147.7</ele>
        <time>2012-01-14T09:06:26Z</time>
      </trkpt>
      <trkpt lat="48.97918" lon="1.09013">
        <ele>147.22</ele>
        <time>2012-01-14T09:06:40Z</time>
      </trkpt>
      <trkpt lat="48.97949" lon="1.09036">
        <ele>147.7</ele>
        <time>2012-01-14T09:06:52Z</time>
      </trkpt>
      <trkpt lat="48.97977" lon="1.09062">
        <ele>147.7</ele>
        <time>2012-01-14T09:07:05Z</time>
      </trkpt>
      <trkpt lat="48.98012" lon="1.09089">
        <ele>147.7</ele>
        <time>2012-01-14T09:07:19Z</time>
      </trkpt>
      <trkpt lat="48.98027" lon="1.09102">
        <ele>147.7</ele>
        <time>2012-01-14T09:07:26Z</time>
      </trkpt>
      <trkpt lat="48.98056" lon="1.09125">
        <ele>147.22</ele>
        <time>2012-01-14T09:07:38Z</time>
      </trkpt>
      <trkpt lat="48.98087" lon="1.09148">
        <ele>147.22</ele>
        <time>2012-01-14T09:07:50Z</time>
      </trkpt>
      <trkpt lat="48.98119" lon="1.09171">
        <ele>146.74</ele>
        <time>2012-01-14T09:08:03Z</time>
      </trkpt>
      <trkpt lat="48.98154" lon="1.09196">
        <ele>146.26</ele>
        <time>2012-01-14T09:08:16Z</time>
      </trkpt>
      <trkpt lat="48.98189" lon="1.0923">
        <ele>145.78</ele>
        <time>2012-01-14T09:08:31Z</time>
      </trkpt>
      <trkpt lat="48.98215" lon="1.09251">
        <ele>145.3</ele>
        <time>2012-01-14T09:08:42Z</time>
      </trkpt>
      <trkpt lat="48.98241" lon="1.09271">
        <ele>144.34</ele>
        <time>2012-01-14T09:08:51Z</time>
      </trkpt>
      <trkpt lat="48.98272" lon="1.09293">
        <ele>143.37</ele>
        <time>2012-01-14T09:09:02Z</time>
      </trkpt>
      <trkpt lat="48.98303" lon="1.0932">
        <ele>142.41</ele>
        <time>2012-01-14T09:09:14Z</time>
      </trkpt>
      <trkpt lat="48.98337" lon="1.09345">
        <ele>141.45</ele>
        <time>2012-01-14T09:09:26Z</time>
      </trkpt>
      <trkpt lat="48.98376" lon="1.09374">
        <ele>140.01</ele>
        <time>2012-01-14T09:09:40Z</time>
      </trkpt>
      <trkpt lat="48.98406" lon="1.09397">
        <ele>138.57</ele>
        <time>2012-01-14T09:09:51Z</time>
      </trkpt>
      <trkpt lat="48.98443" lon="1.09425">
        <ele>137.61</ele>
        <time>2012-01-14T09:10:05Z</time>
      </trkpt>
      <trkpt lat="48.98476" lon="1.09449">
        <ele>136.64</ele>
        <time>2012-01-14T09:10:17Z</time>
      </trkpt>
      <trkpt lat="48.9851" lon="1.09477">
        <ele>135.68</ele>
        <time>2012-01-14T09:10:31Z</time>
      </trkpt>
      <trkpt lat="48.98548" lon="1.09505">
        <ele>135.2</ele>
        <time>2012-01-14T09:10:46Z</time>
      </trkpt>
      <trkpt lat="48.98587" lon="1.09538">
        <ele>134.72</ele>
        <time>2012-01-14T09:11:02Z</time>
      </trkpt>
      <trkpt lat="48.98622" lon="1.09565">
        <ele>134.72</ele>
        <time>2012-01-14T09:11:15Z</time>
      </trkpt>
      <trkpt lat="48.98656" lon="1.09604">
        <ele>134.24</ele>
        <time>2012-01-14T09:11:30Z</time>
      </trkpt>
      <trkpt lat="48.98686" lon="1.09641">
        <ele>133.76</ele>
        <time>2012-01-14T09:11:43Z</time>
      </trkpt>
      <trkpt lat="48.98715" lon="1.09679">
        <ele>133.28</ele>
        <time>2012-01-14T09:11:56Z</time>
      </trkpt>
      <trkpt lat="48.98746" lon="1.09713">
        <ele>132.32</ele>
        <time>2012-01-14T09:12:09Z</time>
      </trkpt>
      <trkpt lat="48.98765" lon="1.09736">
        <ele>131.36</ele>
        <time>2012-01-14T09:12:18Z</time>
      </trkpt>
      <trkpt lat="48.98767" lon="1.09734">
        <ele>130.88</ele>
        <time>2012-01-14T09:12:29Z</time>
      </trkpt>
      <trkpt lat="48.98774" lon="1.09726">
        <ele>131.36</ele>
        <time>2012-01-14T09:12:44Z</time>
      </trkpt>
      <trkpt lat="48.98802" lon="1.09686">
        <ele>129.92</ele>
        <time>2012-01-14T09:12:59Z</time>
      </trkpt>
      <trkpt lat="48.98827" lon="1.09645">
        <ele>128.95</ele>
        <time>2012-01-14T09:13:11Z</time>
      </trkpt>
      <trkpt lat="48.98839" lon="1.09626">
        <ele>127.99</ele>
        <time>2012-01-14T09:13:17Z</time>
      </trkpt>
      <trkpt lat="48.98879" lon="1.09641">
        <ele>126.07</ele>
        <time>2012-01-14T09:13:29Z</time>
      </trkpt>
      <trkpt lat="48.98913" lon="1.09673">
        <ele>125.11</ele>
        <time>2012-01-14T09:13:41Z</time>
      </trkpt>
      <trkpt lat="48.9892" lon="1.09682">
        <ele>124.63</ele>
        <time>2012-01-14T09:13:44Z</time>
      </trkpt>
      <trkpt lat="48.9893" lon="1.09703">
        <ele>123.67</ele>
        <time>2012-01-14T09:13:51Z</time>
      </trkpt>
      <trkpt lat="48.98951" lon="1.09722">
        <ele>122.71</ele>
        <time>2012-01-14T09:14:01Z</time>
      </trkpt>
      <trkpt lat="48.98975" lon="1.09756">
        <ele>121.74</ele>
        <time>2012-01-14T09:14:12Z</time>
      </trkpt>
      <trkpt lat="48.9901" lon="1.09789">
        <ele>118.86</ele>
        <time>2012-01-14T09:14:25Z</time>
      </trkpt>
      <trkpt lat="48.99039" lon="1.09821">
        <ele>116.94</ele>
        <time>2012-01-14T09:14:35Z</time>
      </trkpt>
      <trkpt lat="48.99063" lon="1.09854">
        <ele>113.57</ele>
        <time>2012-01-14T09:14:46Z</time>
      </trkpt>
      <trkpt lat="48.99091" lon="1.0988">
        <ele>110.69</ele>
        <time>2012-01-14T09:14:56Z</time>
      </trkpt>
      <trkpt lat="48.99107" lon="1.0989">
        <ele>109.73</ele>
        <time>2012-01-14T09:15:01Z</time>
      </trkpt>
      <trkpt lat="48.99118" lon="1.09904">
        <ele>108.77</ele>
        <time>2012-01-14T09:15:09Z</time>
      </trkpt>
      <trkpt lat="48.99126" lon="1.099">
        <ele>107.81</ele>
        <time>2012-01-14T09:15:14Z</time>
      </trkpt>
      <trkpt lat="48.9917" lon="1.09937">
        <ele>104.44</ele>
        <time>2012-01-14T09:15:28Z</time>
      </trkpt>
      <trkpt lat="48.99201" lon="1.09961">
        <ele>101.08</ele>
        <time>2012-01-14T09:15:39Z</time>
      </trkpt>
      <trkpt lat="48.99235" lon="1.09981">
        <ele>98.19</ele>
        <time>2012-01-14T09:15:51Z</time>
      </trkpt>
      <trkpt lat="48.99266" lon="1.09982">
        <ele>94.83</ele>
        <time>2012-01-14T09:16:01Z</time>
      </trkpt>
      <trkpt lat="48.993" lon="1.09973">
        <ele>91.94</ele>
        <time>2012-01-14T09:16:12Z</time>
      </trkpt>
      <trkpt lat="48.99336" lon="1.09958">
        <ele>89.06</ele>
        <time>2012-01-14T09:16:24Z</time>
      </trkpt>
      <trkpt lat="48.99378" lon="1.09939">
        <ele>86.18</ele>
        <time>2012-01-14T09:16:38Z</time>
      </trkpt>
      <trkpt lat="48.99422" lon="1.0992">
        <ele>83.29</ele>
        <time>2012-01-14T09:16:52Z</time>
      </trkpt>
      <trkpt lat="48.99453" lon="1.09894">
        <ele>80.89</ele>
        <time>2012-01-14T09:17:04Z</time>
      </trkpt>
      <trkpt lat="48.9948" lon="1.09862">
        <ele>79.93</ele>
        <time>2012-01-14T09:17:16Z</time>
      </trkpt>
      <trkpt lat="48.99517" lon="1.09886">
        <ele>76.56</ele>
        <time>2012-01-14T09:17:28Z</time>
      </trkpt>
      <trkpt lat="48.99539" lon="1.09929">
        <ele>75.12</ele>
        <time>2012-01-14T09:17:40Z</time>
      </trkpt>
      <trkpt lat="48.99557" lon="1.09978">
        <ele>71.76</ele>
        <time>2012-01-14T09:17:52Z</time>
      </trkpt>
      <trkpt lat="48.99571" lon="1.10017">
        <ele>69.35</ele>
        <time>2012-01-14T09:18:02Z</time>
      </trkpt>
      <trkpt lat="48.99591" lon="1.10009">
        <ele>67.91</ele>
        <time>2012-01-14T09:18:13Z</time>
      </trkpt>
      <trkpt lat="48.99628" lon="1.09986">
        <ele>67.91</ele>
        <time>2012-01-14T09:18:27Z</time>
      </trkpt>
      <trkpt lat="48.99661" lon="1.09969">
        <ele>67.43</ele>
        <time>2012-01-14T09:18:40Z</time>
      </trkpt>
      <trkpt lat="48.99683" lon="1.0995">
        <ele>67.43</ele>
        <time>2012-01-14T09:18:50Z</time>
      </trkpt>
      <trkpt lat="48.99711" lon="1.0992">
        <ele>66.95</ele>
        <time>2012-01-14T09:19:03Z</time>
      </trkpt>
      <trkpt lat="48.99738" lon="1.09886">
        <ele>67.43</ele>
        <time>2012-01-14T09:19:17Z</time>
      </trkpt>
      <trkpt lat="48.99765" lon="1.09851">
        <ele>67.43</ele>
        <time>2012-01-14T09:19:31Z</time>
      </trkpt>
      <trkpt lat="48.99792" lon="1.09815">
        <ele>66.95</ele>
        <time>2012-01-14T09:19:46Z</time>
      </trkpt>
      <trkpt lat="48.99821" lon="1.09779">
        <ele>67.43</ele>
        <time>2012-01-14T09:20:01Z</time>
      </trkpt>
      <trkpt lat="48.99844" lon="1.09794">
        <ele>66.95</ele>
        <time>2012-01-14T09:20:11Z</time>
      </trkpt>
      <trkpt lat="48.9986" lon="1.09839">
        <ele>66.95</ele>
        <time>2012-01-14T09:20:24Z</time>
      </trkpt>
      <trkpt lat="48.99883" lon="1.0989">
        <ele>66.95</ele>
        <time>2012-01-14T09:20:40Z</time>
      </trkpt>
      <trkpt lat="48.99896" lon="1.09937">
        <ele>66.95</ele>
        <time>2012-01-14T09:20:55Z</time>
      </trkpt>
      <trkpt lat="48.99914" lon="1.09986">
        <ele>66.95</ele>
        <time>2012-01-14T09:21:10Z</time>
      </trkpt>
      <trkpt lat="48.99931" lon="1.10034">
        <ele>66.95</ele>
        <time>2012-01-14T09:21:24Z</time>
      </trkpt>
      <trkpt lat="48.99949" lon="1.10084">
        <ele>66.95</ele>
        <time>2012-01-14T09:21:38Z</time>
      </trkpt>
      <trkpt lat="48.99952" lon="1.10106">
        <ele>67.43</ele>
        <time>2012-01-14T09:21:44Z</time>
      </trkpt>
      <trkpt lat="48.99969" lon="1.10097">
        <ele>68.39</ele>
        <time>2012-01-14T09:21:55Z</time>
      </trkpt>
      <trkpt lat="48.99997" lon="1.10077">
        <ele>68.87</ele>
        <time>2012-01-14T09:22:08Z</time>
      </trkpt>
      <trkpt lat="49.00032" lon="1.10057">
        <ele>68.39</ele>
        <time>2012-01-14T09:22:22Z</time>
      </trkpt>
      <trkpt lat="49.00068" lon="1.10049">
        <ele>67.91</ele>
        <time>2012-01-14T09:22:35Z</time>
      </trkpt>
      <trkpt lat="49.00097" lon="1.1003">
        <ele>67.43</ele>
        <time>2012-01-14T09:22:47Z</time>
      </trkpt>
      <trkpt lat="49.00128" lon="1.09999">
        <ele>67.91</ele>
        <time>2012-01-14T09:23:02Z</time>
      </trkpt>
      <trkpt lat="49.00159" lon="1.09966">
        <ele>67.91</ele>
        <time>2012-01-14T09:23:17Z</time>
      </trkpt>
      <trkpt lat="49.00184" lon="1.09939">
        <ele>67.91</ele>
        <time>2012-01-14T09:23:29Z</time>
      </trkpt>
      <trkpt lat="49.00215" lon="1.09912">
        <ele>67.91</ele>
        <time>2012-01-14T09:23:43Z</time>
      </trkpt>
      <trkpt lat="49.00236" lon="1.09883">
        <ele>68.39</ele>
        <time>2012-01-14T09:23:55Z</time>
      </trkpt>
      <trkpt lat="49.00236" lon="1.0984">
        <ele>68.87</ele>
        <time>2012-01-14T09:24:08Z</time>
      </trkpt>
      <trkpt lat="49.00215" lon="1.09798">
        <ele>69.35</ele>
        <time>2012-01-14T09:24:21Z</time>
      </trkpt>
      <trkpt lat="49.00192" lon="1.09759">
        <ele>69.83</ele>
        <time>2012-01-14T09:24:35Z</time>
      </trkpt>
      <trkpt lat="49.00175" lon="1.09719">
        <ele>69.83</ele>
        <time>2012-01-14T09:24:48Z</time>
      </trkpt>
      <trkpt lat="49.00168" lon="1.09681">
        <ele>72.72</ele>
        <time>2012-01-14T09:25:03Z</time>
      </trkpt>
      <trkpt lat="49.00166" lon="1.09659">
        <ele>76.08</ele>
        <time>2012-01-14T09:25:14Z</time>
      </trkpt>
      <trkpt lat="49.00164" lon="1.09648">
        <ele>78</ele>
        <time>2012-01-14T09:25:20Z</time>
      </trkpt>
      <trkpt lat="49.00164" lon="1.09626">
        <ele>81.37</ele>
        <time>2012-01-14T09:25:31Z</time>
      </trkpt>
      <trkpt lat="49.00166" lon="1.09607">
        <ele>84.73</ele>
        <time>2012-01-14T09:25:41Z</time>
      </trkpt>
      <trkpt lat="49.00169" lon="1.09583">
        <ele>88.1</ele>
        <time>2012-01-14T09:25:53Z</time>
      </trkpt>
      <trkpt lat="49.0017" lon="1.09579">
        <ele>88.58</ele>
        <time>2012-01-14T09:25:55Z</time>
      </trkpt>
      <trkpt lat="49.00172" lon="1.09572">
        <ele>90.02</ele>
        <time>2012-01-14T09:25:59Z</time>
      </trkpt>
      <trkpt lat="49.00167" lon="1.09547">
        <ele>93.39</ele>
        <time>2012-01-14T09:26:11Z</time>
      </trkpt>
      <trkpt lat="49.00166" lon="1.09519">
        <ele>96.75</ele>
        <time>2012-01-14T09:26:25Z</time>
      </trkpt>
      <trkpt lat="49.00166" lon="1.09496">
        <ele>99.63</ele>
        <time>2012-01-14T09:26:37Z</time>
      </trkpt>
      <trkpt lat="49.00164" lon="1.0948">
        <ele>101.08</ele>
        <time>2012-01-14T09:26:44Z</time>
      </trkpt>
      <trkpt lat="49.00164" lon="1.09476">
        <ele>101.56</ele>
        <time>2012-01-14T09:26:46Z</time>
      </trkpt>
      <trkpt lat="49.00163" lon="1.09451">
        <ele>104.92</ele>
        <time>2012-01-14T09:26:59Z</time>
      </trkpt>
      <trkpt lat="49.00162" lon="1.09428">
        <ele>108.29</ele>
        <time>2012-01-14T09:27:11Z</time>
      </trkpt>
      <trkpt lat="49.00161" lon="1.09405">
        <ele>111.17</ele>
        <time>2012-01-14T09:27:22Z</time>
      </trkpt>
      <trkpt lat="49.0016" lon="1.0938">
        <ele>114.53</ele>
        <time>2012-01-14T09:27:34Z</time>
      </trkpt>
      <trkpt lat="49.00161" lon="1.09358">
        <ele>117.9</ele>
        <time>2012-01-14T09:27:45Z</time>
      </trkpt>
      <trkpt lat="49.00155" lon="1.09315">
        <ele>120.3</ele>
        <time>2012-01-14T09:28:00Z</time>
      </trkpt>
      <trkpt lat="49.0014" lon="1.09274">
        <ele>119.34</ele>
        <time>2012-01-14T09:28:14Z</time>
      </trkpt>
      <trkpt lat="49.00134" lon="1.09219">
        <ele>120.3</ele>
        <time>2012-01-14T09:28:30Z</time>
      </trkpt>
      <trkpt lat="49.00156" lon="1.09172">
        <ele>120.78</ele>
        <time>2012-01-14T09:28:46Z</time>
      </trkpt>
      <trkpt lat="49.00184" lon="1.09149">
        <ele>120.3</ele>
        <time>2012-01-14T09:28:58Z</time>
      </trkpt>
      <trkpt lat="49.00219" lon="1.09137">
        <ele>119.34</ele>
        <time>2012-01-14T09:29:12Z</time>
      </trkpt>
      <trkpt lat="49.00247" lon="1.09114">
        <ele>118.38</ele>
        <time>2012-01-14T09:29:25Z</time>
      </trkpt>
      <trkpt lat="49.00253" lon="1.09097">
        <ele>118.38</ele>
        <time>2012-01-14T09:29:30Z</time>
      </trkpt>
      <trkpt lat="49.00232" lon="1.09055">
        <ele>118.38</ele>
        <time>2012-01-14T09:29:43Z</time>
      </trkpt>
      <trkpt lat="49.00214" lon="1.09014">
        <ele>118.38</ele>
        <time>2012-01-14T09:29:57Z</time>
      </trkpt>
      <trkpt lat="49.00205" lon="1.08966">
        <ele>119.34</ele>
        <time>2012-01-14T09:30:12Z</time>
      </trkpt>
      <trkpt lat="49.00228" lon="1.08945">
        <ele>119.34</ele>
        <time>2012-01-14T09:30:22Z</time>
      </trkpt>
      <trkpt lat="49.00249" lon="1.08941">
        <ele>119.34</ele>
        <time>2012-01-14T09:30:32Z</time>
      </trkpt>
    </trkseg>
  </trk>
</gpx>